»·PEaware :: N494SP KSMX-KBFL

N494SP :: KSMX-KBFL

FLIGHT INFORMATION

Flight Status: Arrived
Operator: Privately registered:
United States
More flights under this callsign
Pilot: Arik L. (33213)
Aircraft: CESSNA 172 SKYHAWK
(C172)
More flights by this aircraft type
Origin: KSMX Santa Maria Pub/Capt Hancock
United States
Destination: KBFL Meadows
United States
More flights between these airports :: More routes between these airports
Route: FLW, L17
File this flight plan on PilotEdge
Remarks:
Altitude:
(Current/Filed)
5,500ft
Speed:
(Current/Filed)
120kts
Departed: 14-Jan-21 04:34 PM
Arrived: 14-Jan-21 05:23 PM
Distance/Time
Traveled:
6875nm/0:49
Distance/Time
To Go:
Arrived

Flight Plot

Page will automatically refresh every two minutes.

Flight plan parsing failed; only flown route is shown


Map Options




Map Legend


Flown Route
Filed Route
Departure Airport
Arrival Airport
Navaid (VOR, NDB)
Fix

Horizontal Profiles

Position Reports

Time Latitude Longitude Heading Altitude Ground
Speed
14-Jan-21 16:18 34.901201 -120.452088 57 240ft 0kts
14-Jan-21 16:19 34.901201 -120.452088 57 240ft 0kts
14-Jan-21 16:20 34.901201 -120.452088 57 240ft 0kts
14-Jan-21 16:21 34.901201 -120.452088 57 240ft 0kts
14-Jan-21 16:22 34.901201 -120.452088 57 240ft 0kts
14-Jan-21 16:23 34.901201 -120.452088 57 240ft 0kts
14-Jan-21 16:24 34.901201 -120.452088 57 240ft 0kts
14-Jan-21 16:25 34.901201 -120.452088 57 240ft 0kts
14-Jan-21 16:26 34.901189 -120.451980 97 240ft 6kts
14-Jan-21 16:27 34.898394 -120.450077 136 248ft 16kts
14-Jan-21 16:28 34.894907 -120.445922 135 260ft 0kts
14-Jan-21 16:29 34.893813 -120.444853 205 263ft 1kts
14-Jan-21 16:30 34.893615 -120.444894 180 264ft 0kts
14-Jan-21 16:31 34.893615 -120.444894 180 264ft 0kts
14-Jan-21 16:32 34.893605 -120.444898 202 264ft 2kts
14-Jan-21 16:33 34.895379 -120.449013 313 255ft 70kts
14-Jan-21 16:34 34.910669 -120.465878 320 944ft 81kts
14-Jan-21 16:35 34.927798 -120.482003 319 1774ft 80kts
14-Jan-21 16:36 34.946635 -120.494224 13 2529ft 83kts
14-Jan-21 16:37 34.960706 -120.477026 45 3199ft 83kts
14-Jan-21 16:38 34.980560 -120.449474 49 3433ft 116kts
14-Jan-21 16:39 35.002091 -120.417057 50 3686ft 119kts
14-Jan-21 16:40 35.015990 -120.382145 73 4184ft 114kts
14-Jan-21 16:41 35.024535 -120.345198 74 4687ft 112kts
14-Jan-21 16:42 35.032880 -120.308777 74 5185ft 110kts
14-Jan-21 16:43 35.041069 -120.272951 74 5693ft 109kts
14-Jan-21 16:44 35.049152 -120.237589 74 6191ft 107kts
14-Jan-21 16:45 35.057080 -120.202872 74 6690ft 105kts
14-Jan-21 16:46 35.064369 -120.170899 74 7185ft 91kts
14-Jan-21 16:47 35.071084 -120.141557 74 7573ft 96kts
14-Jan-21 16:48 35.078920 -120.107122 74 7594ft 112kts
14-Jan-21 16:49 35.087138 -120.070931 74 7596ft 108kts
14-Jan-21 16:50 35.095176 -120.035628 74 7600ft 108kts
14-Jan-21 16:51 35.103374 -119.999665 74 7600ft 112kts
14-Jan-21 16:52 35.111798 -119.962708 74 7579ft 113kts
14-Jan-21 16:53 35.120452 -119.925631 67 7574ft 113kts
14-Jan-21 16:54 35.122710 -119.886097 88 7581ft 119kts
14-Jan-21 16:56 35.123688 -119.844966 88 7588ft 121kts
14-Jan-21 16:57 35.124659 -119.803498 88 7597ft 122kts
14-Jan-21 16:58 35.125631 -119.761812 88 7530ft 126kts
14-Jan-21 16:59 35.126619 -119.719644 88 7505ft 123kts
14-Jan-21 17:00 35.127600 -119.677847 88 7501ft 122kts
14-Jan-21 17:01 35.128598 -119.635638 88 7428ft 126kts
14-Jan-21 17:02 35.129631 -119.591586 88 7213ft 127kts
14-Jan-21 17:03 35.131397 -119.549249 84 7198ft 123kts
14-Jan-21 17:04 35.135139 -119.507819 83 7200ft 122kts
14-Jan-21 17:05 35.139130 -119.465594 83 7105ft 124kts
14-Jan-21 17:06 35.146120 -119.424850 66 7100ft 122kts
14-Jan-21 17:07 35.160827 -119.387200 63 7099ft 122kts
14-Jan-21 17:08 35.176653 -119.347945 63 6751ft 137kts
14-Jan-21 17:09 35.193798 -119.305548 62 6145ft 140kts
14-Jan-21 17:09 35.210398 -119.272456 56 5640ft 134kts
14-Jan-21 17:11 35.238262 -119.232343 39 4939ft 132kts
14-Jan-21 17:12 35.265969 -119.203193 40 4340ft 131kts
14-Jan-21 17:12 35.289352 -119.179066 37 3840ft 132kts
14-Jan-21 17:13 35.317902 -119.151569 37 3237ft 129kts
14-Jan-21 17:15 35.349663 -119.121168 37 2559ft 127kts
14-Jan-21 17:16 35.353253 -119.133205 156 2106ft 110kts
14-Jan-21 17:16 35.360237 -119.118389 357 2023ft 90kts
14-Jan-21 17:17 35.384573 -119.104599 30 1986ft 106kts
14-Jan-21 17:18 35.393879 -119.069855 89 1740ft 113kts
14-Jan-21 17:19 35.395082 -119.039666 15 1754ft 78kts
14-Jan-21 17:20 35.417059 -119.036550 330 1105ft 78kts
14-Jan-21 17:21 35.431237 -119.053065 314 524ft 66kts
14-Jan-21 17:22 35.435989 -119.056503 136 493ft 0kts
14-Jan-21 17:23 35.435989 -119.056503 136 493ft 0kts
14-Jan-21 17:24 35.435989 -119.056503 136 493ft 0kts
14-Jan-21 17:25 35.435989 -119.056503 136 493ft 0kts
14-Jan-21 17:26 35.433353 -119.053345 136 485ft 26kts
14-Jan-21 17:27 35.431953 -119.050173 31 485ft 5kts
14-Jan-21 17:28 0.000000 0.000000 0 0ft 0kts
14-Jan-21 17:29 0.000408 0.013975 0 3ft 0kts
14-Jan-21 17:30 0.000408 0.013975 0 3ft 0kts
14-Jan-21 17:31 0.000408 0.013975 0 3ft 0kts
14-Jan-21 17:32 0.000408 0.013975 0 3ft 0kts
14-Jan-21 17:33 0.000408 0.013975 0 3ft 0kts
14-Jan-21 17:34 0.000408 0.013975 0 3ft 0kts
14-Jan-21 17:35 0.000408 0.013975 0 3ft 0kts
14-Jan-21 17:36 0.000408 0.013975 0 3ft 0kts
14-Jan-21 17:37 0.000408 0.013975 0 3ft 0kts

Navigation Log

Ident Type
Flight plan parsing failed, navigation log unavailable